createdAt,value
2018-09-05T00:02:43.269Z,16.83
2018-09-05T00:05:45.487Z,16.77
2018-09-05T00:08:47.656Z,16.69
2018-09-05T00:11:49.853Z,16.60
2018-09-05T00:14:52.298Z,16.54
2018-09-05T00:17:54.462Z,16.48
2018-09-05T00:20:56.680Z,16.37
2018-09-05T00:23:58.917Z,16.22
2018-09-05T00:27:01.110Z,16.14
2018-09-05T00:30:03.391Z,16.04
2018-09-05T00:33:05.409Z,15.93
2018-09-05T00:36:07.963Z,15.84
2018-09-05T00:39:10.302Z,15.72
2018-09-05T00:42:12.560Z,15.58
2018-09-05T00:45:14.801Z,15.45
2018-09-05T00:48:16.968Z,15.30
2018-09-05T00:51:19.262Z,15.19
2018-09-05T00:54:21.441Z,15.16
2018-09-05T00:57:23.889Z,15.12
2018-09-05T01:00:26.063Z,15.02
2018-09-05T01:03:28.431Z,14.94
2018-09-05T01:06:30.673Z,14.79
2018-09-05T01:09:32.852Z,14.62
2018-09-05T01:12:35.059Z,14.59
2018-09-05T01:15:37.365Z,14.61
2018-09-05T01:18:39.643Z,14.64
2018-09-05T01:21:41.981Z,14.59
2018-09-05T01:24:44.342Z,14.50
2018-09-05T01:27:46.956Z,14.40
2018-09-05T01:30:49.238Z,14.28
2018-09-05T01:33:51.567Z,14.30
2018-09-05T01:36:53.795Z,14.34
2018-09-05T01:39:56.196Z,14.43
2018-09-05T01:42:58.447Z,14.65
2018-09-05T01:46:00.706Z,14.57
2018-09-05T01:49:02.989Z,14.49
2018-09-05T01:52:05.323Z,14.42
2018-09-05T01:55:07.592Z,14.32
2018-09-05T01:58:09.780Z,14.26
2018-09-05T02:01:12.013Z,14.22
2018-09-05T02:04:14.160Z,14.16
2018-09-05T02:07:16.376Z,14.10
2018-09-05T02:10:18.576Z,14.06
2018-09-05T02:13:20.837Z,14.06
2018-09-05T02:16:22.986Z,14.06
2018-09-05T02:19:25.258Z,14.02
2018-09-05T02:22:27.436Z,13.97
2018-09-05T02:25:29.706Z,13.97
2018-09-05T02:28:31.861Z,13.97
2018-09-05T02:31:34.064Z,13.97
2018-09-05T02:34:36.349Z,13.91
2018-09-05T02:37:38.629Z,13.87
2018-09-05T02:40:40.914Z,13.84
2018-09-05T02:43:48.857Z,13.85
2018-09-05T02:46:51.676Z,13.79
2018-09-05T02:49:53.954Z,13.65
2018-09-05T02:52:56.229Z,13.56
2018-09-05T02:56:01.784Z,13.55
2018-09-05T02:59:04.080Z,13.54
2018-09-05T03:02:06.286Z,13.55
2018-09-05T03:05:08.502Z,13.62
2018-09-05T03:08:10.706Z,13.67
2018-09-05T03:11:12.883Z,13.67
2018-09-05T03:14:15.073Z,13.62
2018-09-05T03:17:17.501Z,13.51
2018-09-05T03:20:19.686Z,13.41
2018-09-05T03:23:27.600Z,13.34
2018-09-05T03:26:29.816Z,13.25
2018-09-05T03:29:33.081Z,13.25
2018-09-05T03:32:35.574Z,13.28
2018-09-05T03:35:37.593Z,13.30
2018-09-05T03:38:39.730Z,13.33
2018-09-05T03:41:42.053Z,13.34
2018-09-05T03:44:44.322Z,13.35
2018-09-05T03:47:46.499Z,13.33
2018-09-05T03:50:53.222Z,13.34
2018-09-05T03:53:55.631Z,13.35
2018-09-05T03:56:58.156Z,13.34
2018-09-05T04:00:00.297Z,13.32
2018-09-05T04:03:03.522Z,13.33
2018-09-05T04:06:05.654Z,13.34
2018-09-05T04:09:07.844Z,13.36
2018-09-05T04:12:10.330Z,13.34
2018-09-05T04:15:12.677Z,13.31
2018-09-05T04:18:14.963Z,13.30
2018-09-05T04:21:17.109Z,13.24
2018-09-05T04:24:19.308Z,13.13
2018-09-05T04:27:21.569Z,13.06
2018-09-05T04:30:23.880Z,13.00
2018-09-05T04:33:26.049Z,12.96
2018-09-05T04:36:28.289Z,12.97
2018-09-05T04:39:30.560Z,12.97
2018-09-05T04:42:33.049Z,13.00
2018-09-05T04:45:35.271Z,13.04
2018-09-05T04:48:37.609Z,13.06
2018-09-05T04:51:39.838Z,13.02
2018-09-05T04:54:42.025Z,12.98
2018-09-05T04:57:44.306Z,13.00
2018-09-05T05:00:46.546Z,12.99
2018-09-05T05:03:48.742Z,13.00
2018-09-05T05:06:51.010Z,13.06
2018-09-05T05:09:53.185Z,13.17
2018-09-05T05:12:55.448Z,13.32
2018-09-05T05:15:57.661Z,13.51
2018-09-05T05:18:59.936Z,13.66
2018-09-05T05:22:02.121Z,13.79
2018-09-05T05:25:04.362Z,13.98
2018-09-05T05:28:06.779Z,14.88
2018-09-05T05:31:09.240Z,15.84
2018-09-05T05:34:11.405Z,16.55
2018-09-05T05:37:13.648Z,17.16
2018-09-05T05:40:15.860Z,17.77
2018-09-05T05:43:18.088Z,18.26
2018-09-05T05:46:20.417Z,18.70
2018-09-05T05:49:22.642Z,19.22
2018-09-05T05:52:24.744Z,19.72
2018-09-05T05:55:26.959Z,20.28
2018-09-05T05:58:29.299Z,20.67
2018-09-05T06:01:31.489Z,21.02
2018-09-05T06:04:33.649Z,21.54
2018-09-05T06:07:35.788Z,21.80
2018-09-05T06:10:38.141Z,22.17
2018-09-05T06:13:40.448Z,22.47
2018-09-05T06:16:42.868Z,22.67
2018-09-05T06:19:45.204Z,22.88
2018-09-05T06:22:48.792Z,22.97
2018-09-05T06:25:50.977Z,22.84
2018-09-05T06:28:53.101Z,23.03
2018-09-05T06:31:55.267Z,23.09
2018-09-05T06:34:57.413Z,23.34
2018-09-05T06:37:59.635Z,23.58
2018-09-05T06:41:01.873Z,23.98
2018-09-05T06:44:04.095Z,23.98
2018-09-05T06:47:06.375Z,24.43
2018-09-05T06:50:08.563Z,25.07
2018-09-05T06:53:10.821Z,24.95
2018-09-05T06:56:13.000Z,25.29
2018-09-05T06:59:15.386Z,25.57
2018-09-05T07:02:17.642Z,25.60
2018-09-05T07:05:19.935Z,25.55
2018-09-05T07:08:22.168Z,25.28
2018-09-05T07:11:24.301Z,24.59
2018-09-05T07:14:26.548Z,24.57
2018-09-05T07:17:28.714Z,24.74
2018-09-05T07:20:30.893Z,24.55
2018-09-05T07:23:33.213Z,25.00
2018-09-05T07:26:35.906Z,25.13
2018-09-05T07:29:38.077Z,25.04
2018-09-05T07:32:40.315Z,25.14
2018-09-05T07:35:42.593Z,25.02
2018-09-05T07:38:44.673Z,25.84
2018-09-05T07:41:46.858Z,25.88
2018-09-05T07:44:50.067Z,25.71
2018-09-05T07:47:52.470Z,25.16
2018-09-05T07:50:54.794Z,24.71
2018-09-05T07:53:56.940Z,24.42
2018-09-05T07:56:59.124Z,22.92
2018-09-05T08:00:01.340Z,22.78
2018-09-05T08:03:03.647Z,22.68
2018-09-05T08:06:05.793Z,23.33
2018-09-05T08:09:09.812Z,22.68
2018-09-05T08:12:12.018Z,22.55
2018-09-05T08:15:14.210Z,22.32
2018-09-05T08:18:16.366Z,22.68
2018-09-05T08:21:18.661Z,22.94
2018-09-05T08:24:20.942Z,23.19
2018-09-05T08:27:23.531Z,23.90
2018-09-05T08:30:25.661Z,24.06
2018-09-05T08:33:27.888Z,23.64
2018-09-05T08:36:30.333Z,24.03
2018-09-05T08:39:32.295Z,24.11
2018-09-05T08:42:35.453Z,24.58
2018-09-05T08:45:37.804Z,24.36
2018-09-05T08:48:39.903Z,24.72
2018-09-05T08:51:41.985Z,25.00
2018-09-05T08:54:44.245Z,25.02
2018-09-05T08:57:46.432Z,24.30
2018-09-05T09:00:48.606Z,24.49
2018-09-05T09:03:50.768Z,24.67
2018-09-05T09:06:52.908Z,25.60
2018-09-05T09:09:55.422Z,26.29
2018-09-05T09:12:57.758Z,26.43
2018-09-05T09:15:59.998Z,25.70
2018-09-05T09:19:02.188Z,25.58
2018-09-05T09:22:04.526Z,25.73
2018-09-05T09:25:06.841Z,25.98
2018-09-05T09:28:09.077Z,25.94
2018-09-05T09:31:11.264Z,26.25
2018-09-05T09:34:13.494Z,26.02
2018-09-05T09:37:15.736Z,25.75
2018-09-05T09:40:17.928Z,25.61
2018-09-05T09:43:20.217Z,26.10
2018-09-05T09:46:22.391Z,26.30
2018-09-05T09:49:24.734Z,26.73
2018-09-05T09:52:26.888Z,26.62
2018-09-05T09:55:29.104Z,26.93
2018-09-05T09:58:31.349Z,26.64
2018-09-05T10:01:39.249Z,26.95
2018-09-05T10:04:47.225Z,26.76
2018-09-05T10:07:55.103Z,26.72
2018-09-05T10:11:06.653Z,27.79
2018-09-05T10:14:11.129Z,28.14
2018-09-05T10:17:18.938Z,28.34
2018-09-05T10:20:21.225Z,27.92
2018-09-05T10:23:23.501Z,27.88
2018-09-05T10:26:25.636Z,27.73
2018-09-05T10:29:27.892Z,28.81
2018-09-05T10:32:30.512Z,29.26
2018-09-05T10:35:33.078Z,28.42
2018-09-05T10:38:35.443Z,27.91
2018-09-05T10:41:37.690Z,27.34
2018-09-05T10:44:40.026Z,27.21
2018-09-05T10:47:42.259Z,28.14
2018-09-05T10:50:44.479Z,29.09
2018-09-05T10:53:46.711Z,29.71
2018-09-05T10:56:48.927Z,29.97
2018-09-05T10:59:51.116Z,29.97
2018-09-05T11:02:53.686Z,29.89
2018-09-05T11:05:56.889Z,30.03
2018-09-05T11:08:59.202Z,29.42
2018-09-05T11:12:01.435Z,29.05
2018-09-05T11:15:03.819Z,28.63
2018-09-05T11:18:06.084Z,28.83
2018-09-05T11:21:08.335Z,28.78
2018-09-05T11:24:10.683Z,28.92
2018-09-05T11:27:12.930Z,28.35
2018-09-05T11:30:15.156Z,28.68
2018-09-05T11:33:17.525Z,28.67
2018-09-05T11:36:19.773Z,28.63
2018-09-05T11:39:22.001Z,29.39
2018-09-05T11:42:24.233Z,30.29
2018-09-05T11:45:26.533Z,30.29
2018-09-05T11:48:28.785Z,30.90
2018-09-05T11:51:31.196Z,30.97
2018-09-05T11:54:33.438Z,30.93
2018-09-05T11:57:35.713Z,31.05
2018-09-05T12:00:37.971Z,30.60
2018-09-05T12:03:40.228Z,30.51
2018-09-05T12:06:42.489Z,30.84
2018-09-05T12:09:44.648Z,31.33
2018-09-05T12:12:46.882Z,31.12
2018-09-05T12:15:49.388Z,30.72
2018-09-05T12:18:51.616Z,30.55
2018-09-05T12:21:53.965Z,29.12
2018-09-05T12:24:56.257Z,28.73
2018-09-05T12:27:59.453Z,28.50
2018-09-05T12:31:01.727Z,28.72
2018-09-05T12:34:04.070Z,28.78
2018-09-05T12:37:06.337Z,28.43
2018-09-05T12:40:08.949Z,28.60
2018-09-05T12:43:11.225Z,28.67
2018-09-05T12:46:13.439Z,28.68
2018-09-05T12:49:15.697Z,28.72
2018-09-05T12:52:18.032Z,28.77
2018-09-05T12:55:20.562Z,29.04
2018-09-05T12:58:22.828Z,28.88
2018-09-05T13:01:25.072Z,28.89
2018-09-05T13:04:27.405Z,29.06
2018-09-05T13:07:29.605Z,29.24
2018-09-05T13:10:32.089Z,28.93
2018-09-05T13:13:34.452Z,28.86
2018-09-05T13:16:36.828Z,29.05
2018-09-05T13:19:39.080Z,29.37
2018-09-05T13:22:41.256Z,29.43
2018-09-05T13:25:43.570Z,29.53
2018-09-05T13:28:45.921Z,29.99
2018-09-05T13:31:48.141Z,30.09
2018-09-05T13:34:50.360Z,29.25
2018-09-05T13:37:52.650Z,30.05
2018-09-05T13:40:54.984Z,30.72
2018-09-05T13:43:57.218Z,31.86
2018-09-05T13:46:59.465Z,32.78
2018-09-05T13:50:02.119Z,33.71
2018-09-05T13:53:04.591Z,34.14
2018-09-05T13:56:06.932Z,34.11
2018-09-05T13:59:09.128Z,33.31
2018-09-05T14:02:11.282Z,33.07
2018-09-05T14:05:14.049Z,33.32
2018-09-05T14:08:16.216Z,34.06
2018-09-05T14:11:18.400Z,33.31
2018-09-05T14:14:20.598Z,32.34
2018-09-05T14:17:22.896Z,32.52
2018-09-05T14:20:25.255Z,32.50
2018-09-05T14:23:27.534Z,32.18
2018-09-05T14:26:29.881Z,32.47
2018-09-05T14:29:32.064Z,32.69
2018-09-05T14:32:34.228Z,32.07
2018-09-05T14:35:36.428Z,32.24
2018-09-05T14:38:38.842Z,32.38
2018-09-05T14:41:41.294Z,31.93
2018-09-05T14:44:43.637Z,31.40
2018-09-05T14:47:45.922Z,31.00
2018-09-05T14:50:48.216Z,31.22
2018-09-05T14:53:50.496Z,32.12
2018-09-05T14:56:52.689Z,32.94
2018-09-05T14:59:54.946Z,33.43
2018-09-05T15:02:57.209Z,33.93
2018-09-05T15:05:59.477Z,33.70
2018-09-05T15:09:01.801Z,33.54
2018-09-05T15:12:04.093Z,33.31
2018-09-05T15:15:06.500Z,32.44
2018-09-05T15:18:08.649Z,32.68
2018-09-05T15:21:10.927Z,32.87
2018-09-05T15:24:13.262Z,32.52
2018-09-05T15:27:15.761Z,32.85
2018-09-05T15:30:18.093Z,32.17
2018-09-05T15:33:20.312Z,32.58
2018-09-05T15:36:22.618Z,32.61
2018-09-05T15:39:24.996Z,32.51
2018-09-05T15:42:27.452Z,31.32
2018-09-05T15:45:29.784Z,31.19
2018-09-05T15:48:31.984Z,31.74
2018-09-05T15:51:35.146Z,31.77
2018-09-05T15:54:37.402Z,32.03
2018-09-05T15:57:39.645Z,32.24
2018-09-05T16:00:42.924Z,31.74
2018-09-05T16:03:45.254Z,31.85
2018-09-05T16:06:47.479Z,31.88
2018-09-05T16:09:49.750Z,31.70
2018-09-05T16:12:52.067Z,30.85
2018-09-05T16:15:54.290Z,30.64
2018-09-05T16:18:56.629Z,29.55
2018-09-05T16:21:58.971Z,29.24
2018-09-05T16:25:02.212Z,29.13
2018-09-05T16:28:04.669Z,29.06
2018-09-05T16:31:06.980Z,29.00
2018-09-05T16:34:09.548Z,29.13
2018-09-05T16:37:11.808Z,29.41
2018-09-05T16:40:14.088Z,28.98
2018-09-05T16:43:16.369Z,28.92
2018-09-05T16:46:18.762Z,29.24
2018-09-05T16:49:21.017Z,29.78
2018-09-05T16:52:28.757Z,29.89
2018-09-05T16:55:31.127Z,29.99
2018-09-05T16:58:33.409Z,30.12
2018-09-05T17:01:35.585Z,30.20
2018-09-05T17:04:37.880Z,29.99
2018-09-05T17:07:40.277Z,29.76
2018-09-05T17:10:42.496Z,29.58
2018-09-05T17:13:44.656Z,29.44
2018-09-05T17:16:46.874Z,29.31
2018-09-05T17:19:49.167Z,29.12
2018-09-05T17:22:51.417Z,28.90
2018-09-05T17:25:53.751Z,28.51
2018-09-05T17:34:23.429Z,26.99
2018-09-05T17:37:25.898Z,26.27
2018-09-05T17:40:28.208Z,25.63
2018-09-05T17:43:30.495Z,25.02
2018-09-05T17:46:32.660Z,24.54
2018-09-05T17:49:35.039Z,24.18
2018-09-05T17:52:37.279Z,23.85
2018-09-05T17:55:39.593Z,23.54
2018-09-05T17:58:41.914Z,23.26
2018-09-05T18:01:44.265Z,22.95
2018-09-05T18:04:46.433Z,22.65
2018-09-05T18:07:48.725Z,22.48
2018-09-05T18:10:51.016Z,22.26
2018-09-05T18:13:53.254Z,22.03
2018-09-05T18:16:55.546Z,21.83
2018-09-05T18:19:57.820Z,21.64
2018-09-05T18:23:00.104Z,21.52
2018-09-05T18:26:03.468Z,21.43
2018-09-05T18:29:05.684Z,21.35
2018-09-05T18:33:32.565Z,21.23
2018-09-05T18:36:34.877Z,20.94
2018-09-05T18:39:37.293Z,20.81
2018-09-05T18:42:39.583Z,20.69
2018-09-05T18:45:41.732Z,20.56
2018-09-05T18:48:45.195Z,20.46
2018-09-05T18:51:47.760Z,20.31
2018-09-05T18:54:49.972Z,20.23
2018-09-05T18:57:52.171Z,20.04
2018-09-05T19:00:54.368Z,19.94
2018-09-05T19:03:56.551Z,19.90
2018-09-05T19:06:58.885Z,19.86
2018-09-05T19:10:01.090Z,19.84
2018-09-05T19:13:03.312Z,19.89
2018-09-05T19:16:05.568Z,19.83
2018-09-05T19:19:07.929Z,19.72
2018-09-05T19:22:10.289Z,19.63
2018-09-05T19:25:12.685Z,19.27
2018-09-05T19:28:14.962Z,19.12
2018-09-05T19:31:17.309Z,19.03
2018-09-05T19:34:19.685Z,18.97
2018-09-05T19:37:22.886Z,18.95
2018-09-05T19:40:25.121Z,18.92
2018-09-05T19:43:27.380Z,18.83
2018-09-05T19:46:29.676Z,18.71
2018-09-05T19:49:31.894Z,18.63
2018-09-05T19:52:34.449Z,18.53
2018-09-05T19:55:36.713Z,18.44
2018-09-05T19:58:39.152Z,18.31
2018-09-05T20:01:41.551Z,18.03
2018-09-05T20:04:43.766Z,17.93
2018-09-05T20:07:46.025Z,17.86
2018-09-05T20:10:48.218Z,17.87
2018-09-05T20:13:50.404Z,17.97
2018-09-05T20:16:52.608Z,18.00
2018-09-05T20:19:54.968Z,18.02
2018-09-05T20:22:57.229Z,17.81
2018-09-05T20:25:59.458Z,17.61
2018-09-05T20:29:01.754Z,17.43
2018-09-05T20:32:04.050Z,17.40
2018-09-05T20:35:06.272Z,17.28
2018-09-05T20:38:08.558Z,17.28
2018-09-05T20:41:10.782Z,17.34
2018-09-05T20:44:12.973Z,17.28
2018-09-05T20:47:15.273Z,17.27
2018-09-05T20:50:17.503Z,17.33
2018-09-05T20:53:19.782Z,17.29
2018-09-05T20:56:22.074Z,17.25
2018-09-05T20:59:24.380Z,17.39
2018-09-05T21:02:26.617Z,17.43
2018-09-05T21:05:28.877Z,17.44
2018-09-05T21:08:31.136Z,17.40
2018-09-05T21:11:33.323Z,17.32
2018-09-05T21:14:35.584Z,17.26
2018-09-05T21:17:37.899Z,17.22
2018-09-05T21:20:40.152Z,17.12
2018-09-05T21:23:42.429Z,17.03
2018-09-05T21:26:44.729Z,16.92
2018-09-05T21:29:46.928Z,16.78
2018-09-05T21:36:27.940Z,16.68
2018-09-05T21:39:30.304Z,16.67
2018-09-05T21:42:32.629Z,16.62
2018-09-05T21:45:35.114Z,16.61
2018-09-05T21:48:37.460Z,16.53
2018-09-05T21:51:39.785Z,16.47
2018-09-05T21:54:42.072Z,16.36
2018-09-05T21:57:44.419Z,16.20
2018-09-05T22:00:47.385Z,16.09
2018-09-05T22:03:51.116Z,15.99
2018-09-05T22:06:53.443Z,15.98
2018-09-05T22:09:55.733Z,15.99
2018-09-05T22:12:58.135Z,15.98
2018-09-05T22:16:00.456Z,15.91
2018-09-05T22:19:02.844Z,15.81
2018-09-05T22:22:05.168Z,15.72
2018-09-05T22:25:07.661Z,15.63
2018-09-05T22:28:09.907Z,15.55
2018-09-05T22:31:12.186Z,15.49
2018-09-05T22:34:14.437Z,15.48
2018-09-05T22:37:16.756Z,15.60
2018-09-05T22:40:19.088Z,15.61
2018-09-05T22:43:34.300Z,15.59
2018-09-05T22:46:48.067Z,15.44
2018-09-05T22:50:12.391Z,15.33
2018-09-05T22:53:38.364Z,15.28
2018-09-05T22:56:59.246Z,15.29
2018-09-05T23:00:13.499Z,15.34
2018-09-05T23:03:32.779Z,15.37
2018-09-05T23:07:46.022Z,15.32
2018-09-05T23:10:59.829Z,15.38
2018-09-05T23:14:13.558Z,15.34
2018-09-05T23:17:27.332Z,15.27
2018-09-05T23:20:42.005Z,15.17
2018-09-05T23:23:51.337Z,15.03
2018-09-05T23:26:53.643Z,14.98
2018-09-05T23:29:55.938Z,14.89
2018-09-05T23:32:58.199Z,14.82
2018-09-05T23:36:01.219Z,14.75
2018-09-05T23:39:04.604Z,14.61
2018-09-05T23:42:07.066Z,14.17
2018-09-05T23:45:09.418Z,14.11
2018-09-05T23:48:11.683Z,14.17
2018-09-05T23:51:13.910Z,14.22
2018-09-05T23:54:16.235Z,14.22
2018-09-05T23:57:18.554Z,14.24
